Time;durP1;ratioP1;P1;durP2;ratioP2;P2;SDS_P1;SDS_P2;PMS_P1;PMS_P2;Temp;Humidity;BMP_temperature;BMP_pressure;BME280_temperature;BME280_humidity;BME280_pressure;Samples;Min_cycle;Max_cycle;Signal;HPM_P1;HPM_P2
2023/05/19 00:01:31;;;;;;;16.50;6.30;;;9.60;99.90;;;;;;4933323;29;20698;-80
2023/05/19 00:04:01;;;;;;;20.00;7.20;;;9.60;99.90;;;;;;4918343;29;20226;-80
2023/05/19 00:06:32;;;;;;;18.85;6.28;;;9.60;99.90;;;;;;4918587;29;20188;-80
2023/05/19 00:09:00;;;;;;;17.48;5.90;;;9.60;99.90;;;;;;4922732;29;20239;-81
2023/05/19 00:11:27;;;;;;;20.75;6.53;;;9.60;99.90;;;;;;4921861;29;20529;-81
2023/05/19 00:13:57;;;;;;;18.33;5.88;;;9.60;99.90;;;;;;4937035;29;20183;-81
2023/05/19 00:16:25;;;;;;;18.58;6.18;;;9.60;99.90;;;;;;4951880;29;20176;-81
2023/05/19 00:18:52;;;;;;;17.83;6.68;;;9.60;99.90;;;;;;4937093;29;20587;-81
2023/05/19 00:21:18;;;;;;;13.93;5.45;;;9.60;99.90;;;;;;4937095;29;20267;-81
2023/05/19 00:23:44;;;;;;;15.20;5.43;;;9.60;99.90;;;;;;4951563;29;20180;-82
2023/05/19 00:26:10;;;;;;;19.25;5.88;;;9.60;99.90;;;;;;4950962;29;20198;-81
2023/05/19 00:28:37;;;;;;;17.42;5.43;;;9.60;99.90;;;;;;4937118;29;20178;-83
2023/05/19 00:31:05;;;;;;;22.35;5.03;;;9.60;99.90;;;;;;4937351;29;20218;-81
2023/05/19 00:33:35;;;;;;;20.83;5.80;;;9.60;99.90;;;;;;4935827;29;20187;-81
2023/05/19 00:36:02;;;;;;;16.25;5.68;;;9.60;99.90;;;;;;4935810;29;20179;-81
2023/05/19 00:38:31;;;;;;;22.58;5.65;;;9.60;99.90;;;;;;4936857;29;20191;-81
2023/05/19 00:40:57;;;;;;;17.77;5.57;;;9.70;99.90;;;;;;4936881;29;20252;-81
2023/05/19 00:43:23;;;;;;;14.55;5.30;;;9.70;99.90;;;;;;4935589;29;20191;-80
2023/05/19 00:45:49;;;;;;;21.00;5.35;;;9.70;99.90;;;;;;4935409;29;20191;-80
2023/05/19 00:48:15;;;;;;;19.38;6.28;;;9.70;99.90;;;;;;4936833;29;20223;-80
2023/05/19 00:50:41;;;;;;;19.33;5.28;;;9.70;99.90;;;;;;4936496;29;20591;-81
2023/05/19 00:53:07;;;;;;;18.33;5.32;;;9.70;99.90;;;;;;4935590;29;20298;-81
2023/05/19 00:55:35;;;;;;;17.95;5.70;;;9.70;99.90;;;;;;4936535;29;20726;-80
2023/05/19 00:58:03;;;;;;;16.52;5.45;;;9.70;99.90;;;;;;4927033;29;20184;-80
2023/05/19 01:00:30;;;;;;;20.58;5.25;;;9.70;99.90;;;;;;4935300;29;20246;-81
2023/05/19 01:02:55;;;;;;;14.80;5.20;;;9.70;99.90;;;;;;4936447;29;20207;-80
2023/05/19 01:05:21;;;;;;;15.02;5.10;;;9.70;99.90;;;;;;4935040;29;20653;-80
2023/05/19 01:07:52;;;;;;;21.08;5.82;;;9.70;99.90;;;;;;4915886;29;20184;-80
2023/05/19 01:10:19;;;;;;;13.32;5.32;;;9.70;99.90;;;;;;4916457;29;20188;-80
2023/05/19 01:12:45;;;;;;;16.52;5.72;;;9.60;99.90;;;;;;4916340;29;20251;-80
2023/05/19 01:15:12;;;;;;;16.33;5.65;;;9.60;99.90;;;;;;4919238;29;20564;-80
2023/05/19 01:18:10;;;;;;;15.32;5.18;;;9.70;99.90;;;;;;4919131;29;20195;-80
2023/05/19 01:20:45;;;;;;;16.77;5.20;;;9.60;99.90;;;;;;4934929;29;20685;-81
2023/05/19 01:23:16;;;;;;;15.77;5.65;;;9.60;99.90;;;;;;4935009;29;20179;-80
2023/05/19 01:26:01;;;;;;;21.77;5.22;;;9.60;99.90;;;;;;4935992;29;20183;-80
2023/05/19 01:28:30;;;;;;;18.17;5.43;;;9.60;99.90;;;;;;4935382;29;20179;-83
2023/05/19 01:30:59;;;;;;;17.45;5.07;;;9.50;99.90;;;;;;4946452;29;20184;-80
2023/05/19 01:33:28;;;;;;;17.10;5.45;;;9.50;99.90;;;;;;4936192;29;20192;-80
2023/05/19 01:35:55;;;;;;;14.23;5.15;;;9.50;99.90;;;;;;4917068;29;20186;-81
2023/05/19 01:38:24;;;;;;;16.67;5.28;;;9.40;99.90;;;;;;4929265;29;20218;-84
2023/05/19 01:40:53;;;;;;;17.40;4.72;;;9.40;99.90;;;;;;4934655;29;20175;-83
2023/05/19 01:43:22;;;;;;;17.10;4.97;;;9.50;99.90;;;;;;4918288;29;20176;-83
2023/05/19 01:45:49;;;;;;;20.70;5.18;;;9.40;99.90;;;;;;4950654;29;20187;-83
2023/05/19 01:48:15;;;;;;;15.95;5.18;;;9.40;99.90;;;;;;4949524;29;20230;-83
2023/05/19 01:50:41;;;;;;;13.43;4.25;;;9.40;99.90;;;;;;4934543;29;20603;-82
2023/05/19 01:53:08;;;;;;;18.52;4.47;;;9.40;99.90;;;;;;4934848;29;20847;-82
2023/05/19 01:55:39;;;;;;;19.98;5.00;;;9.40;99.90;;;;;;4935785;29;20183;-82
2023/05/19 01:58:10;;;;;;;16.45;4.80;;;9.40;99.90;;;;;;4948892;29;20171;-82
2023/05/19 02:00:59;;;;;;;20.05;5.13;;;9.40;99.90;;;;;;4918386;29;20214;-82
2023/05/19 02:03:33;;;;;;;18.13;5.07;;;9.40;99.90;;;;;;4935442;29;20619;-83
2023/05/19 02:06:14;;;;;;;19.95;4.65;;;9.30;99.90;;;;;;4950285;29;20178;-83
2023/05/19 02:08:42;;;;;;;21.08;4.72;;;9.30;99.90;;;;;;4948191;29;20187;-83
2023/05/19 02:11:24;;;;;;;20.25;4.60;;;9.30;99.90;;;;;;4935696;29;20230;-82
2023/05/19 02:13:54;;;;;;;13.30;4.30;;;9.30;99.90;;;;;;4933970;29;20247;-82
2023/05/19 02:16:24;;;;;;;23.17;4.75;;;9.30;99.90;;;;;;4950475;29;20178;-81
2023/05/19 02:18:52;;;;;;;17.52;4.72;;;9.30;99.90;;;;;;4951227;28;20266;-82
2023/05/19 02:21:18;;;;;;;18.25;5.13;;;9.30;99.90;;;;;;4920024;29;20578;-82
2023/05/19 02:23:45;;;;;;;17.08;4.93;;;9.30;99.90;;;;;;4927081;29;20202;-82
2023/05/19 02:26:11;;;;;;;22.13;4.90;;;9.20;99.90;;;;;;4938026;29;20175;-82
2023/05/19 02:28:37;;;;;;;22.60;4.35;;;9.30;99.90;;;;;;4937546;29;20255;-82
2023/05/19 02:31:05;;;;;;;24.30;5.15;;;9.20;99.90;;;;;;4910554;29;20520;-82
2023/05/19 02:33:31;;;;;;;18.88;4.90;;;9.20;99.90;;;;;;4918724;29;20191;-83
2023/05/19 02:35:57;;;;;;;19.17;4.75;;;9.20;99.90;;;;;;4937337;29;20210;-82
2023/05/19 02:38:23;;;;;;;19.55;5.20;;;9.20;99.90;;;;;;4937476;29;20187;-82
2023/05/19 02:40:51;;;;;;;18.48;5.25;;;9.10;99.90;;;;;;4936514;29;20219;-83
2023/05/19 02:43:17;;;;;;;20.05;4.68;;;9.20;99.90;;;;;;4952919;29;20191;-82
2023/05/19 02:45:43;;;;;;;21.55;5.13;;;9.20;99.90;;;;;;4938640;29;20190;-82
2023/05/19 02:48:09;;;;;;;19.42;5.43;;;9.20;99.90;;;;;;4937333;29;20227;-82
2023/05/19 02:50:35;;;;;;;15.68;5.05;;;9.20;99.90;;;;;;4936450;29;20226;-83
2023/05/19 02:53:01;;;;;;;23.15;5.10;;;9.20;99.90;;;;;;4936653;29;20220;-84
2023/05/19 02:55:27;;;;;;;22.95;5.43;;;9.20;99.90;;;;;;4937031;29;20637;-83
2023/05/19 02:57:53;;;;;;;20.02;5.10;;;9.20;99.90;;;;;;4918149;29;20196;-83
2023/05/19 03:00:19;;;;;;;17.40;5.13;;;9.20;99.90;;;;;;4937334;29;20222;-83
2023/05/19 03:02:45;;;;;;;17.40;5.30;;;9.10;99.90;;;;;;4920205;29;20183;-82
2023/05/19 03:05:11;;;;;;;15.50;4.90;;;9.10;99.90;;;;;;4921389;29;20231;-82
2023/05/19 03:07:36;;;;;;;18.92;5.88;;;9.10;99.90;;;;;;4921521;29;20183;-82
2023/05/19 03:10:03;;;;;;;18.85;5.63;;;9.10;99.90;;;;;;4937132;29;20214;-82
2023/05/19 03:12:29;;;;;;;22.92;5.80;;;9.10;99.90;;;;;;4931006;29;20188;-82
2023/05/19 03:14:54;;;;;;;22.52;6.35;;;9.10;99.90;;;;;;4929606;29;20189;-82
2023/05/19 03:17:20;;;;;;;20.35;6.15;;;9.10;99.90;;;;;;4920928;29;20270;-82
2023/05/19 03:19:46;;;;;;;22.75;5.82;;;9.10;99.90;;;;;;4952448;29;20571;-82
2023/05/19 03:22:12;;;;;;;16.58;6.13;;;9.10;99.90;;;;;;4938995;29;20188;-82
2023/05/19 03:24:38;;;;;;;19.95;5.22;;;9.10;99.90;;;;;;4922870;29;20221;-82
2023/05/19 03:27:04;;;;;;;26.30;6.18;;;9.00;99.90;;;;;;4952801;28;20183;-82
2023/05/19 03:29:30;;;;;;;19.77;6.07;;;9.00;99.90;;;;;;4939834;29;20187;-82
2023/05/19 03:31:56;;;;;;;26.10;6.38;;;9.00;99.90;;;;;;4944068;28;20637;-82
2023/05/19 03:34:22;;;;;;;20.60;6.07;;;9.00;99.90;;;;;;4937920;29;20187;-82
2023/05/19 03:36:49;;;;;;;19.75;6.15;;;9.00;99.90;;;;;;4920791;29;20183;-82
2023/05/19 03:39:16;;;;;;;28.73;6.78;;;9.00;99.90;;;;;;4904955;29;20314;-82
2023/05/19 03:41:42;;;;;;;26.15;6.50;;;8.90;99.90;;;;;;4920808;29;20667;-82
2023/05/19 03:44:08;;;;;;;20.00;6.43;;;8.90;99.90;;;;;;4917967;29;20206;-81
2023/05/19 03:46:34;;;;;;;20.35;6.60;;;8.90;99.90;;;;;;4929994;29;20180;-81
2023/05/19 03:49:19;;;;;;;27.30;6.95;;;8.90;99.90;;;;;;4922229;29;20294;-81
2023/05/19 03:52:04;;;;;;;25.83;6.88;;;8.90;99.90;;;;;;4937869;29;20206;-81
2023/05/19 03:54:48;;;;;;;29.13;7.43;;;8.90;99.90;;;;;;4934951;29;20191;-81
2023/05/19 03:57:14;;;;;;;23.65;7.00;;;8.90;99.90;;;;;;4936126;29;20676;-81
2023/05/19 03:59:40;;;;;;;23.85;7.35;;;8.90;99.90;;;;;;4935827;29;20222;-81
2023/05/19 04:02:06;;;;;;;21.23;7.05;;;8.90;99.90;;;;;;4935995;29;20175;-82
2023/05/19 04:04:32;;;;;;;24.75;6.93;;;8.90;99.90;;;;;;4954364;28;20185;-82
2023/05/19 04:06:58;;;;;;;26.52;7.35;;;8.90;99.90;;;;;;4926862;29;20187;-83
2023/05/19 04:09:23;;;;;;;19.48;7.07;;;8.90;99.90;;;;;;4901126;29;20891;-82
2023/05/19 04:11:49;;;;;;;22.27;7.00;;;8.90;99.90;;;;;;4901276;29;20252;-82
2023/05/19 04:14:16;;;;;;;23.52;7.82;;;8.90;99.90;;;;;;4932246;29;20278;-82
2023/05/19 04:16:42;;;;;;;29.48;7.10;;;9.00;99.90;;;;;;4918286;29;20274;-82
2023/05/19 04:19:08;;;;;;;25.55;8.13;;;8.90;99.90;;;;;;4917999;29;20216;-81
2023/05/19 04:21:34;;;;;;;26.30;7.15;;;9.00;99.90;;;;;;4916859;29;20203;-81
2023/05/19 04:24:00;;;;;;;24.83;8.25;;;9.00;99.90;;;;;;4929863;29;20195;-82
2023/05/19 04:26:29;;;;;;;22.33;8.18;;;9.00;99.90;;;;;;4927749;29;20288;-83
2023/05/19 04:28:55;;;;;;;21.20;7.90;;;9.00;99.90;;;;;;4916651;29;20621;-83
2023/05/19 04:31:22;;;;;;;21.33;7.78;;;9.00;99.90;;;;;;4916242;29;20192;-82
2023/05/19 04:33:49;;;;;;;22.63;7.72;;;9.00;99.90;;;;;;4916702;29;20196;-82
2023/05/19 04:36:17;;;;;;;25.33;7.80;;;9.00;99.90;;;;;;4917727;29;20186;-82
2023/05/19 04:38:44;;;;;;;22.33;8.60;;;9.00;99.90;;;;;;4951624;29;20187;-82
2023/05/19 04:41:12;;;;;;;22.10;8.40;;;9.10;99.90;;;;;;4919901;29;20203;-83
2023/05/19 04:43:40;;;;;;;21.77;8.18;;;9.10;99.90;;;;;;4934463;29;20179;-83
2023/05/19 04:46:09;;;;;;;24.48;7.80;;;9.10;99.90;;;;;;4936281;29;20190;-82
2023/05/19 04:48:35;;;;;;;27.95;8.05;;;9.20;99.90;;;;;;4935101;29;20314;-83
2023/05/19 04:51:01;;;;;;;25.40;8.38;;;9.20;99.90;;;;;;4933311;29;20645;-84
2023/05/19 04:53:28;;;;;;;21.85;7.70;;;9.20;99.90;;;;;;4935274;29;20183;-84
2023/05/19 04:55:59;;;;;;;22.45;8.15;;;9.30;99.90;;;;;;4903946;29;20183;-84
2023/05/19 04:58:27;;;;;;;23.27;8.23;;;9.30;99.90;;;;;;4924524;29;20646;-83
2023/05/19 05:00:59;;;;;;;17.88;8.45;;;9.40;99.90;;;;;;4916032;29;20275;-84
2023/05/19 05:03:26;;;;;;;23.65;9.27;;;9.40;99.90;;;;;;4916090;29;20649;-83
2023/05/19 05:05:52;;;;;;;22.75;9.05;;;9.50;99.90;;;;;;4947697;29;20190;-83
2023/05/19 05:08:22;;;;;;;22.73;8.40;;;9.50;99.90;;;;;;4934251;29;20187;-83
2023/05/19 05:10:51;;;;;;;19.77;8.27;;;9.60;99.90;;;;;;4950750;29;20641;-83
2023/05/19 05:13:20;;;;;;;22.15;9.02;;;9.60;99.90;;;;;;4934220;29;20192;-83
2023/05/19 05:15:46;;;;;;;24.23;9.65;;;9.70;99.90;;;;;;4915994;29;20191;-83
2023/05/19 05:18:14;;;;;;;17.67;8.63;;;9.80;99.90;;;;;;4924781;29;20211;-81
2023/05/19 05:20:42;;;;;;;25.65;9.35;;;9.80;99.90;;;;;;4934832;29;20238;-82
2023/05/19 05:23:15;;;;;;;19.75;8.90;;;9.90;99.90;;;;;;4950863;29;20314;-82
2023/05/19 05:25:44;;;;;;;25.88;8.95;;;10.00;99.90;;;;;;4935955;29;20163;-82
2023/05/19 05:28:11;;;;;;;21.88;8.52;;;10.00;99.90;;;;;;4918583;29;20199;-82
2023/05/19 05:30:37;;;;;;;18.90;8.40;;;10.10;99.90;;;;;;4929543;29;20187;-82
2023/05/19 05:33:05;;;;;;;23.30;8.80;;;10.10;99.90;;;;;;4934836;29;20278;-81
2023/05/19 05:35:35;;;;;;;22.25;8.50;;;10.20;99.90;;;;;;4934948;29;20556;-81
2023/05/19 05:38:01;;;;;;;18.60;8.68;;;10.20;99.90;;;;;;4933006;29;20186;-81
2023/05/19 05:40:27;;;;;;;20.77;8.45;;;10.30;99.90;;;;;;4933106;29;20215;-82
2023/05/19 05:42:57;;;;;;;19.10;8.50;;;10.30;99.90;;;;;;4937721;29;20188;-82
2023/05/19 05:45:25;;;;;;;20.13;9.38;;;10.40;99.90;;;;;;4918556;29;20184;-82
2023/05/19 05:47:52;;;;;;;17.20;8.57;;;10.40;99.90;;;;;;4931150;29;20192;-83
2023/05/19 05:50:18;;;;;;;18.58;9.15;;;10.50;99.90;;;;;;4944056;29;20263;-82
2023/05/19 05:52:49;;;;;;;22.60;8.93;;;10.50;99.90;;;;;;4918848;29;20285;-83
2023/05/19 05:55:17;;;;;;;18.95;8.93;;;10.60;99.90;;;;;;4891491;29;20665;-84
2023/05/19 05:57:43;;;;;;;20.25;9.25;;;10.70;99.90;;;;;;4933700;29;20194;-88
2023/05/19 06:00:14;;;;;;;21.25;8.95;;;10.80;99.90;;;;;;4922183;29;20211;-80
2023/05/19 06:02:48;;;;;;;17.63;8.98;;;10.80;99.90;;;;;;4939352;29;20588;-84
2023/05/19 06:05:15;;;;;;;19.90;8.68;;;10.90;99.90;;;;;;4922568;29;20186;-84
2023/05/19 06:07:43;;;;;;;19.20;8.98;;;11.00;99.90;;;;;;4922525;29;20633;-84
2023/05/19 06:10:10;;;;;;;17.42;8.77;;;11.10;99.90;;;;;;4922618;29;20179;-82
2023/05/19 06:12:41;;;;;;;18.85;8.32;;;11.10;99.90;;;;;;4939364;29;20673;-79
2023/05/19 06:15:07;;;;;;;20.65;8.98;;;11.20;99.90;;;;;;4953784;29;20191;-83
2023/05/19 06:17:51;;;;;;;17.42;8.63;;;11.30;99.90;;;;;;4939333;29;20194;-81
2023/05/19 06:20:18;;;;;;;15.73;8.52;;;11.30;99.90;;;;;;4922201;29;20233;-82
2023/05/19 06:22:44;;;;;;;20.95;8.23;;;11.40;99.90;;;;;;4921671;29;20550;-83
2023/05/19 06:25:10;;;;;;;20.42;8.75;;;11.50;99.90;;;;;;4949548;29;20183;-82
2023/05/19 06:27:37;;;;;;;18.13;8.13;;;11.60;99.90;;;;;;4937901;29;20587;-82
2023/05/19 06:30:03;;;;;;;18.95;6.97;;;11.60;99.90;;;;;;4938080;29;20202;-82
2023/05/19 06:32:34;;;;;;;19.17;7.30;;;11.70;99.90;;;;;;4934382;29;20271;-83
2023/05/19 06:35:00;;;;;;;13.65;6.80;;;11.80;99.90;;;;;;4918666;29;20658;-83
2023/05/19 06:37:25;;;;;;;18.92;6.93;;;11.90;99.90;;;;;;4918945;29;20220;-83
2023/05/19 06:39:52;;;;;;;19.42;7.35;;;12.00;99.90;;;;;;4921510;29;20215;-82
2023/05/19 06:42:21;;;;;;;20.33;6.32;;;12.10;99.90;;;;;;4937550;29;20187;-83
2023/05/19 06:45:05;;;;;;;18.33;5.63;;;12.10;99.90;;;;;;4936985;29;20223;-82
2023/05/19 06:47:31;;;;;;;15.23;6.00;;;12.20;99.90;;;;;;4937361;29;20200;-83
2023/05/19 06:49:57;;;;;;;11.35;5.18;;;12.20;99.90;;;;;;4936992;29;20242;-82
2023/05/19 06:52:26;;;;;;;19.00;5.68;;;12.30;99.90;;;;;;4936589;29;20184;-83
2023/05/19 06:54:53;;;;;;;11.45;5.20;;;12.40;99.90;;;;;;4942959;29;20184;-85
2023/05/19 06:57:19;;;;;;;10.48;4.70;;;12.50;99.90;;;;;;4937061;29;20187;-81
2023/05/19 06:59:45;;;;;;;14.65;5.28;;;12.50;99.90;;;;;;4937395;29;20677;-82
2023/05/19 07:02:12;;;;;;;11.60;4.68;;;12.60;99.90;;;;;;4937135;29;20184;-82
2023/05/19 07:04:38;;;;;;;12.25;4.60;;;12.70;99.90;;;;;;4936859;29;20701;-82
2023/05/19 07:07:05;;;;;;;16.50;4.70;;;12.80;99.90;;;;;;4936261;29;20550;-82
2023/05/19 07:09:32;;;;;;;14.10;4.32;;;12.90;99.90;;;;;;4937150;29;20278;-82
2023/05/19 07:11:58;;;;;;;9.23;4.32;;;13.00;99.90;;;;;;4937052;29;20660;-81
2023/05/19 07:14:24;;;;;;;10.82;3.83;;;13.10;99.90;;;;;;4933164;29;20187;-82
2023/05/19 07:16:50;;;;;;;9.15;4.43;;;13.20;99.90;;;;;;4936915;29;20187;-81
2023/05/19 07:19:18;;;;;;;12.40;4.65;;;13.30;99.90;;;;;;4920934;29;20309;-82
2023/05/19 07:21:47;;;;;;;9.10;3.95;;;13.50;99.90;;;;;;4921096;29;20183;-81
2023/05/19 07:24:14;;;;;;;11.55;3.95;;;13.60;99.90;;;;;;4918640;29;20197;-82
2023/05/19 07:26:41;;;;;;;13.30;4.05;;;13.70;99.90;;;;;;4936875;29;20186;-82
2023/05/19 07:29:07;;;;;;;17.83;4.10;;;13.80;99.90;;;;;;4937885;29;20313;-82
2023/05/19 07:31:33;;;;;;;12.50;4.22;;;13.90;99.90;;;;;;4918841;29;20184;-81
2023/05/19 07:33:59;;;;;;;12.50;3.90;;;14.00;99.90;;;;;;4919279;29;20191;-81
2023/05/19 07:36:26;;;;;;;11.57;4.38;;;14.10;99.90;;;;;;4918961;29;20274;-81
2023/05/19 07:38:51;;;;;;;11.55;3.95;;;14.10;99.90;;;;;;4922380;29;20191;-82
2023/05/19 07:41:17;;;;;;;13.80;4.05;;;14.20;99.90;;;;;;4953097;29;20659;-80
2023/05/19 07:43:43;;;;;;;9.88;4.07;;;14.30;99.90;;;;;;4952187;29;20176;-80
2023/05/19 07:46:08;;;;;;;8.75;3.88;;;14.40;99.90;;;;;;4947669;29;20180;-82
2023/05/19 07:48:34;;;;;;;13.07;3.55;;;14.50;99.90;;;;;;4935551;29;20250;-81
2023/05/19 07:51:01;;;;;;;10.25;3.60;;;14.70;99.90;;;;;;4938015;29;20692;-81
2023/05/19 07:53:27;;;;;;;14.05;4.13;;;14.80;99.90;;;;;;4937734;29;20218;-81
2023/05/19 07:55:52;;;;;;;12.98;3.30;;;14.90;99.90;;;;;;4931320;29;20200;-82
2023/05/19 07:58:19;;;;;;;13.75;3.85;;;15.00;99.90;;;;;;4961992;28;20719;-82
2023/05/19 08:00:45;;;;;;;10.55;3.15;;;15.10;99.90;;;;;;4936457;29;20263;-82
2023/05/19 08:03:11;;;;;;;8.23;3.33;;;15.20;99.90;;;;;;4934654;29;20570;-83
2023/05/19 08:05:37;;;;;;;9.95;3.38;;;15.40;99.90;;;;;;4934778;29;20646;-82
2023/05/19 08:08:03;;;;;;;8.98;3.00;;;15.50;99.90;;;;;;4935011;29;20187;-83
2023/05/19 08:10:29;;;;;;;8.98;3.05;;;15.60;99.90;;;;;;4931745;29;20289;-82
2023/05/19 08:12:55;;;;;;;12.05;3.22;;;15.80;99.90;;;;;;4931296;29;20242;-83
2023/05/19 08:15:21;;;;;;;9.63;3.53;;;15.90;99.90;;;;;;4928983;29;20183;-81
2023/05/19 08:17:47;;;;;;;11.07;3.67;;;16.00;99.90;;;;;;4916735;29;20204;-82
2023/05/19 08:20:13;;;;;;;11.52;3.20;;;16.10;99.90;;;;;;4927932;29;20584;-83
2023/05/19 08:22:39;;;;;;;10.77;3.25;;;16.20;99.90;;;;;;4935470;29;20202;-82
2023/05/19 08:25:06;;;;;;;10.38;3.40;;;16.30;99.90;;;;;;4929934;29;20558;-82
2023/05/19 08:27:32;;;;;;;12.90;3.30;;;16.40;99.90;;;;;;4934654;29;20191;-82
2023/05/19 08:29:58;;;;;;;6.03;2.95;;;16.50;99.90;;;;;;4934893;29;20204;-82
2023/05/19 08:32:24;;;;;;;11.77;3.42;;;16.70;99.90;;;;;;4934405;29;20184;-83
2023/05/19 08:34:50;;;;;;;12.27;3.53;;;16.80;99.90;;;;;;4914948;29;20236;-82
2023/05/19 08:37:17;;;;;;;9.43;3.00;;;16.90;99.70;;;;;;4925496;29;20654;-82
2023/05/19 08:39:42;;;;;;;8.07;3.50;;;16.90;98.90;;;;;;4935235;29;20207;-82
2023/05/19 08:42:08;;;;;;;12.18;3.83;;;16.90;98.70;;;;;;4918034;29;20244;-82
2023/05/19 08:44:38;;;;;;;12.95;3.70;;;16.90;98.30;;;;;;4925634;29;20187;-82
2023/05/19 08:47:06;;;;;;;11.02;3.30;;;16.80;97.50;;;;;;4929335;29;20646;-84
2023/05/19 08:49:40;;;;;;;12.65;3.80;;;16.90;97.50;;;;;;4948791;29;20243;-82
2023/05/19 08:52:29;;;;;;;9.45;3.58;;;17.10;97.10;;;;;;4915759;29;20674;-83
2023/05/19 08:55:06;;;;;;;7.53;3.13;;;17.30;96.80;;;;;;4935383;29;20183;-82
2023/05/19 08:57:32;;;;;;;9.38;3.58;;;17.50;96.20;;;;;;4935376;29;20270;-81
2023/05/19 08:59:59;;;;;;;6.63;3.33;;;17.60;95.90;;;;;;4933795;29;20630;-81
2023/05/19 09:02:26;;;;;;;10.80;3.90;;;17.70;95.30;;;;;;4935480;29;20187;-83
2023/05/19 09:04:52;;;;;;;11.95;3.58;;;17.70;94.40;;;;;;4949377;29;20278;-80
2023/05/19 09:07:20;;;;;;;9.32;3.78;;;17.80;94.40;;;;;;4935153;29;20274;-83
2023/05/19 09:09:46;;;;;;;7.63;3.55;;;17.90;94.40;;;;;;4932418;29;20207;-83
2023/05/19 09:12:13;;;;;;;10.65;3.47;;;18.00;93.30;;;;;;4924575;29;20199;-83
2023/05/19 09:14:39;;;;;;;8.77;3.50;;;18.10;93.20;;;;;;4934235;29;20239;-82
2023/05/19 09:17:05;;;;;;;10.38;3.35;;;18.20;92.60;;;;;;4934394;29;20187;-84
2023/05/19 09:19:31;;;;;;;15.00;4.55;;;18.30;92.60;;;;;;4931573;29;20219;-82
2023/05/19 09:22:05;;;;;;;12.27;3.70;;;18.50;92.30;;;;;;4935663;29;20194;-83
2023/05/19 09:24:32;;;;;;;10.45;3.72;;;18.40;91.20;;;;;;4935916;29;20188;-82
2023/05/19 09:26:58;;;;;;;10.05;3.72;;;18.50;91.10;;;;;;4936421;29;20199;-81
2023/05/19 09:29:27;;;;;;;12.95;3.53;;;18.50;90.20;;;;;;4934550;29;20214;-82
2023/05/19 09:32:02;;;;;;;8.48;3.30;;;18.40;90.00;;;;;;4934247;29;20192;-81
2023/05/19 09:34:28;;;;;;;11.15;3.97;;;18.40;89.20;;;;;;4930872;29;20183;-82
2023/05/19 09:36:54;;;;;;;9.77;3.80;;;18.50;89.50;;;;;;4933284;29;20250;-82
2023/05/19 09:39:21;;;;;;;10.05;3.42;;;18.50;88.60;;;;;;4934474;29;20273;-82
2023/05/19 09:41:53;;;;;;;9.45;3.92;;;18.50;89.00;;;;;;4925454;29;20184;-82
2023/05/19 09:44:19;;;;;;;12.57;2.78;;;18.70;88.30;;;;;;4916812;29;20180;-82
2023/05/19 09:46:49;;;;;;;8.75;3.17;;;18.80;86.70;;;;;;4929365;29;20277;-81
2023/05/19 09:49:33;;;;;;;9.55;3.28;;;18.90;86.30;;;;;;4934285;29;20233;-81
2023/05/19 09:52:02;;;;;;;10.98;3.00;;;19.00;83.50;;;;;;4935121;29;20203;-80
2023/05/19 09:54:31;;;;;;;8.43;2.95;;;19.10;84.40;;;;;;4931611;29;20266;-80
2023/05/19 09:57:00;;;;;;;8.32;3.45;;;19.20;83.10;;;;;;4919059;29;20207;-82
2023/05/19 09:59:27;;;;;;;6.35;2.92;;;19.20;81.70;;;;;;4932160;29;20203;-85
2023/05/19 10:01:58;;;;;;;6.93;3.15;;;19.20;81.10;;;;;;4934872;29;20187;-85
2023/05/19 10:04:25;;;;;;;6.18;2.90;;;19.30;80.80;;;;;;4932810;29;20207;-83
2023/05/19 10:06:58;;;;;;;5.25;2.55;;;19.30;77.20;;;;;;4935852;29;20262;-84
2023/05/19 10:09:30;;;;;;;7.93;2.88;;;19.20;75.10;;;;;;4935633;29;20199;-83
2023/05/19 10:11:57;;;;;;;7.63;2.78;;;19.00;72.10;;;;;;4935359;29;20186;-81
2023/05/19 10:14:27;;;;;;;7.30;2.97;;;19.00;71.40;;;;;;4931661;29;20216;-83
2023/05/19 10:16:55;;;;;;;7.00;2.72;;;18.90;70.90;;;;;;4918380;29;20179;-82
2023/05/19 10:19:22;;;;;;;8.02;3.10;;;18.90;70.10;;;;;;4934205;29;20215;-80
2023/05/19 10:21:49;;;;;;;7.28;2.30;;;18.90;69.00;;;;;;4918208;29;20187;-82
2023/05/19 10:24:14;;;;;;;9.63;2.83;;;18.90;67.10;;;;;;4935228;29;20283;-80
2023/05/19 10:26:44;;;;;;;9.68;3.05;;;18.90;66.10;;;;;;4947960;29;20274;-81
2023/05/19 10:29:13;;;;;;;8.65;3.13;;;18.90;66.00;;;;;;4934344;29;20194;-81
2023/05/19 10:31:40;;;;;;;7.88;2.85;;;18.90;66.50;;;;;;4935217;29;20202;-78
2023/05/19 10:34:22;;;;;;;6.80;3.00;;;19.00;65.10;;;;;;4934308;29;20632;-79
2023/05/19 10:37:15;;;;;;;7.60;2.70;;;19.10;64.00;;;;;;4934422;29;20211;-79
2023/05/19 10:39:43;;;;;;;7.30;2.60;;;19.20;63.60;;;;;;4936286;29;20213;-79
2023/05/19 10:42:24;;;;;;;6.93;2.65;;;19.40;62.70;;;;;;4938610;29;20194;-79
2023/05/19 10:45:13;;;;;;;8.85;2.90;;;19.40;61.90;;;;;;4953257;29;20194;-80
2023/05/19 10:47:42;;;;;;;11.43;3.08;;;19.40;61.80;;;;;;4936910;29;20191;-79
2023/05/19 10:50:09;;;;;;;9.27;2.80;;;19.40;62.60;;;;;;4917982;29;20231;-79
2023/05/19 10:52:39;;;;;;;10.27;3.00;;;19.30;61.60;;;;;;4919876;29;20193;-80
2023/05/19 10:55:16;;;;;;;5.68;2.60;;;19.20;61.90;;;;;;4934227;29;20676;-79
2023/05/19 10:57:57;;;;;;;9.55;3.28;;;19.10;62.80;;;;;;4937388;29;20648;-79
2023/05/19 11:00:27;;;;;;;6.65;2.90;;;19.10;62.80;;;;;;4947495;29;20214;-80
2023/05/19 11:03:10;;;;;;;7.85;2.78;;;19.10;63.00;;;;;;4931150;29;20202;-79
2023/05/19 11:05:36;;;;;;;6.50;2.78;;;19.10;62.90;;;;;;4952936;29;20559;-81
2023/05/19 11:08:04;;;;;;;6.00;2.33;;;19.10;62.10;;;;;;4936531;29;20286;-78
2023/05/19 11:10:30;;;;;;;6.13;2.70;;;19.10;61.40;;;;;;4937820;29;20183;-79
2023/05/19 11:12:56;;;;;;;10.55;2.95;;;19.10;60.60;;;;;;4938216;29;20649;-79
2023/05/19 11:15:26;;;;;;;11.50;2.70;;;19.10;60.90;;;;;;4936626;29;20262;-82
2023/05/19 11:17:52;;;;;;;7.20;3.03;;;19.40;61.00;;;;;;4937240;29;20197;-80
2023/05/19 11:20:23;;;;;;;7.55;3.13;;;19.70;60.80;;;;;;4938146;29;20207;-80
2023/05/19 11:23:13;;;;;;;10.25;2.67;;;20.00;60.50;;;;;;4937917;29;20271;-81
2023/05/19 11:25:47;;;;;;;8.95;2.70;;;20.40;59.30;;;;;;4938679;29;20176;-81
2023/05/19 11:28:24;;;;;;;8.98;2.97;;;20.60;59.00;;;;;;4935473;29;20191;-80
2023/05/19 11:30:57;;;;;;;8.93;3.10;;;20.90;59.40;;;;;;4938269;29;20179;-79
2023/05/19 11:33:27;;;;;;;13.30;3.60;;;21.00;58.70;;;;;;4935729;29;20262;-81
2023/05/19 11:35:57;;;;;;;9.68;3.92;;;21.00;58.60;;;;;;4937968;29;20187;-80
2023/05/19 11:38:22;;;;;;;9.65;3.40;;;20.90;59.30;;;;;;4938053;29;20183;-80
2023/05/19 11:40:51;;;;;;;10.02;3.42;;;20.80;59.40;;;;;;4924561;29;20235;-79
2023/05/19 11:43:17;;;;;;;10.68;2.83;;;20.80;59.40;;;;;;4945753;29;20198;-79
2023/05/19 11:45:43;;;;;;;9.60;3.08;;;20.70;59.40;;;;;;4918590;29;20261;-78
2023/05/19 11:48:12;;;;;;;11.93;3.65;;;20.70;59.70;;;;;;4932311;29;20187;-79
2023/05/19 11:50:40;;;;;;;5.78;2.95;;;20.70;59.30;;;;;;4938049;29;20334;-79
2023/05/19 11:53:06;;;;;;;10.23;3.08;;;20.70;59.20;;;;;;4937285;29;20235;-79
2023/05/19 11:55:33;;;;;;;6.57;2.80;;;20.60;59.20;;;;;;4937548;29;20168;-80
2023/05/19 11:58:03;;;;;;;10.10;3.20;;;20.50;59.60;;;;;;4936516;29;20183;-80
2023/05/19 12:00:35;;;;;;;9.35;2.75;;;20.50;59.40;;;;;;4937746;29;20211;-80
2023/05/19 12:03:01;;;;;;;7.10;2.70;;;20.40;59.50;;;;;;4936950;29;20199;-80
2023/05/19 12:05:28;;;;;;;8.05;2.47;;;20.40;59.80;;;;;;4937303;29;20546;-80
2023/05/19 12:07:54;;;;;;;8.65;2.95;;;20.40;59.70;;;;;;4937362;29;20183;-80
2023/05/19 12:10:27;;;;;;;7.50;3.08;;;20.40;59.40;;;;;;4937382;29;20668;-80
2023/05/19 12:12:54;;;;;;;6.43;2.45;;;20.60;59.60;;;;;;4937346;29;20207;-80
2023/05/19 12:15:21;;;;;;;10.25;2.95;;;20.60;58.90;;;;;;4935808;29;20183;-80
2023/05/19 12:17:54;;;;;;;6.05;2.60;;;20.60;58.70;;;;;;4920377;29;20263;-80
2023/05/19 12:20:21;;;;;;;6.07;2.22;;;20.50;59.10;;;;;;4920015;29;20206;-77
2023/05/19 12:22:47;;;;;;;9.43;2.60;;;20.50;59.30;;;;;;4937604;29;20187;-80
2023/05/19 12:25:15;;;;;;;10.98;2.67;;;20.50;59.40;;;;;;4936985;29;20266;-78
2023/05/19 12:27:42;;;;;;;8.93;2.83;;;20.50;59.30;;;;;;4937036;29;20242;-79
2023/05/19 12:30:09;;;;;;;9.07;3.05;;;20.60;59.40;;;;;;4937028;29;20526;-79
2023/05/19 12:32:35;;;;;;;9.32;2.97;;;20.60;59.20;;;;;;4937548;29;20262;-79
2023/05/19 12:35:06;;;;;;;5.18;2.58;;;20.60;59.30;;;;;;4935659;29;20774;-79
2023/05/19 12:37:33;;;;;;;9.32;3.17;;;20.50;59.40;;;;;;4936761;29;20238;-79
2023/05/19 12:40:00;;;;;;;16.17;3.40;;;20.50;59.80;;;;;;4936946;29;20225;-79
2023/05/19 12:42:30;;;;;;;9.25;3.13;;;20.60;60.40;;;;;;4936638;29;20219;-79
2023/05/19 12:44:57;;;;;;;9.02;3.22;;;20.70;60.40;;;;;;4935633;29;20199;-79
2023/05/19 12:47:33;;;;;;;11.52;3.10;;;20.70;59.90;;;;;;4936894;29;20185;-80
2023/05/19 12:49:59;;;;;;;9.82;2.88;;;20.70;60.20;;;;;;4936395;29;20282;-79